Terminal Aerodrome Forecast
Issued by NWS Cleveland, OH

Current Version | Previous Version | Text Only | Print | Product List | Glossary On
Versions: 1 2 3 4 5 6 7 8 9 10 11 12 13 14 15 16
851
FTUS41 KCLE 262327
TAFMFD
TAF
KMFD 262327Z 2700/2724 21015KT P6SM SCT080
     FM271000 18008KT P6SM BKN035 OVC060
     FM271900 18008KT P6SM VCSH BKN030 OVC050=

USA.gov is the U.S. government's official web portal to all federal, state and local government web resources and services.